sensor_id;sensor_type;location;lat;lon;timestamp;P1;durP1;ratioP1;P2;durP2;ratioP2
22904;SDS011;11619;50.140;8.518;2023-05-14T00:00:34;4.57;;;4.20;;
22904;SDS011;11619;50.140;8.518;2023-05-14T00:03:01;5.03;;;4.30;;
22904;SDS011;11619;50.140;8.518;2023-05-14T00:05:27;5.38;;;4.22;;
22904;SDS011;11619;50.140;8.518;2023-05-14T00:07:54;3.88;;;3.58;;
22904;SDS011;11619;50.140;8.518;2023-05-14T00:10:20;5.63;;;4.28;;
22904;SDS011;11619;50.140;8.518;2023-05-14T00:12:50;5.00;;;4.47;;
22904;SDS011;11619;50.140;8.518;2023-05-14T00:15:16;5.07;;;4.20;;
22904;SDS011;11619;50.140;8.518;2023-05-14T00:17:43;4.47;;;4.07;;
22904;SDS011;11619;50.140;8.518;2023-05-14T00:20:10;4.95;;;4.25;;
22904;SDS011;11619;50.140;8.518;2023-05-14T00:22:37;4.65;;;4.10;;
22904;SDS011;11619;50.140;8.518;2023-05-14T00:25:05;5.90;;;3.95;;
22904;SDS011;11619;50.140;8.518;2023-05-14T00:27:32;4.53;;;4.13;;
22904;SDS011;11619;50.140;8.518;2023-05-14T00:29:59;6.45;;;4.53;;
22904;SDS011;11619;50.140;8.518;2023-05-14T00:32:25;4.85;;;4.07;;
22904;SDS011;11619;50.140;8.518;2023-05-14T00:34:52;4.20;;;3.88;;
22904;SDS011;11619;50.140;8.518;2023-05-14T00:37:18;4.50;;;4.15;;
22904;SDS011;11619;50.140;8.518;2023-05-14T00:39:45;6.38;;;4.72;;
22904;SDS011;11619;50.140;8.518;2023-05-14T00:42:11;5.57;;;4.32;;
22904;SDS011;11619;50.140;8.518;2023-05-14T00:44:38;5.90;;;4.55;;
22904;SDS011;11619;50.140;8.518;2023-05-14T00:47:04;4.60;;;4.20;;
22904;SDS011;11619;50.140;8.518;2023-05-14T00:49:31;4.50;;;4.10;;
22904;SDS011;11619;50.140;8.518;2023-05-14T00:51:57;5.10;;;4.50;;
22904;SDS011;11619;50.140;8.518;2023-05-14T00:54:25;5.10;;;4.63;;
22904;SDS011;11619;50.140;8.518;2023-05-14T00:56:52;5.10;;;4.30;;
22904;SDS011;11619;50.140;8.518;2023-05-14T00:59:19;5.05;;;4.57;;
22904;SDS011;11619;50.140;8.518;2023-05-14T01:01:45;5.15;;;4.25;;
22904;SDS011;11619;50.140;8.518;2023-05-14T01:04:12;5.05;;;4.65;;
22904;SDS011;11619;50.140;8.518;2023-05-14T01:09:19;7.32;;;4.75;;
22904;SDS011;11619;50.140;8.518;2023-05-14T01:15:20;4.68;;;4.28;;
22904;SDS011;11619;50.140;8.518;2023-05-14T01:17:53;6.07;;;4.70;;
22904;SDS011;11619;50.140;8.518;2023-05-14T01:20:23;8.63;;;5.22;;
22904;SDS011;11619;50.140;8.518;2023-05-14T01:22:51;10.27;;;4.80;;
22904;SDS011;11619;50.140;8.518;2023-05-14T01:25:17;5.03;;;4.53;;
22904;SDS011;11619;50.140;8.518;2023-05-14T01:30:39;5.32;;;4.75;;
22904;SDS011;11619;50.140;8.518;2023-05-14T01:33:09;4.88;;;4.28;;
22904;SDS011;11619;50.140;8.518;2023-05-14T01:35:36;5.82;;;4.22;;
22904;SDS011;11619;50.140;8.518;2023-05-14T01:38:04;6.93;;;4.50;;
22904;SDS011;11619;50.140;8.518;2023-05-14T01:40:32;6.35;;;4.80;;
22904;SDS011;11619;50.140;8.518;2023-05-14T01:43:01;4.43;;;4.03;;
22904;SDS011;11619;50.140;8.518;2023-05-14T01:45:29;4.40;;;4.00;;
22904;SDS011;11619;50.140;8.518;2023-05-14T01:47:56;4.40;;;4.00;;
22904;SDS011;11619;50.140;8.518;2023-05-14T01:50:23;5.13;;;4.68;;
22904;SDS011;11619;50.140;8.518;2023-05-14T01:52:50;5.00;;;4.60;;
22904;SDS011;11619;50.140;8.518;2023-05-14T01:55:21;5.07;;;4.68;;
22904;SDS011;11619;50.140;8.518;2023-05-14T01:57:51;4.68;;;4.15;;
22904;SDS011;11619;50.140;8.518;2023-05-14T02:00:18;4.63;;;4.20;;
22904;SDS011;11619;50.140;8.518;2023-05-14T02:02:46;4.30;;;4.00;;
22904;SDS011;11619;50.140;8.518;2023-05-14T02:05:12;5.10;;;4.60;;
22904;SDS011;11619;50.140;8.518;2023-05-14T02:07:39;5.28;;;4.78;;
22904;SDS011;11619;50.140;8.518;2023-05-14T02:10:06;8.60;;;4.70;;
22904;SDS011;11619;50.140;8.518;2023-05-14T02:12:32;4.90;;;4.50;;
22904;SDS011;11619;50.140;8.518;2023-05-14T02:14:59;5.93;;;4.63;;
22904;SDS011;11619;50.140;8.518;2023-05-14T02:17:25;7.53;;;4.45;;
22904;SDS011;11619;50.140;8.518;2023-05-14T02:19:52;4.97;;;4.05;;
22904;SDS011;11619;50.140;8.518;2023-05-14T02:22:19;4.55;;;4.10;;
22904;SDS011;11619;50.140;8.518;2023-05-14T02:24:45;4.18;;;3.78;;
22904;SDS011;11619;50.140;8.518;2023-05-14T02:27:12;7.65;;;4.50;;
22904;SDS011;11619;50.140;8.518;2023-05-14T02:29:38;4.03;;;3.72;;
22904;SDS011;11619;50.140;8.518;2023-05-14T02:32:05;4.80;;;4.40;;
22904;SDS011;11619;50.140;8.518;2023-05-14T02:34:31;5.30;;;4.80;;
22904;SDS011;11619;50.140;8.518;2023-05-14T02:36:59;4.70;;;4.30;;
22904;SDS011;11619;50.140;8.518;2023-05-14T02:39:26;5.57;;;4.28;;
22904;SDS011;11619;50.140;8.518;2023-05-14T02:41:52;4.75;;;4.22;;
22904;SDS011;11619;50.140;8.518;2023-05-14T02:44:19;5.20;;;4.72;;
22904;SDS011;11619;50.140;8.518;2023-05-14T02:46:45;6.43;;;4.43;;
22904;SDS011;11619;50.140;8.518;2023-05-14T02:49:13;4.68;;;4.28;;
22904;SDS011;11619;50.140;8.518;2023-05-14T02:51:39;4.07;;;3.70;;
22904;SDS011;11619;50.140;8.518;2023-05-14T02:54:05;5.03;;;4.53;;
22904;SDS011;11619;50.140;8.518;2023-05-14T02:56:32;4.18;;;3.88;;
22904;SDS011;11619;50.140;8.518;2023-05-14T02:58:59;4.50;;;4.10;;
22904;SDS011;11619;50.140;8.518;2023-05-14T03:01:25;4.40;;;4.10;;
22904;SDS011;11619;50.140;8.518;2023-05-14T03:03:52;4.78;;;4.32;;
22904;SDS011;11619;50.140;8.518;2023-05-14T03:06:19;4.63;;;4.10;;
22904;SDS011;11619;50.140;8.518;2023-05-14T03:08:45;4.55;;;4.15;;
22904;SDS011;11619;50.140;8.518;2023-05-14T03:11:12;5.93;;;4.78;;
22904;SDS011;11619;50.140;8.518;2023-05-14T03:13:38;4.93;;;4.18;;
22904;SDS011;11619;50.140;8.518;2023-05-14T03:16:05;5.40;;;4.72;;
22904;SDS011;11619;50.140;8.518;2023-05-14T03:18:31;5.30;;;4.53;;
22904;SDS011;11619;50.140;8.518;2023-05-14T03:20:59;4.38;;;4.07;;
22904;SDS011;11619;50.140;8.518;2023-05-14T03:23:26;4.93;;;4.53;;
22904;SDS011;11619;50.140;8.518;2023-05-14T03:25:53;6.88;;;4.43;;
22904;SDS011;11619;50.140;8.518;2023-05-14T03:28:19;5.25;;;4.68;;
22904;SDS011;11619;50.140;8.518;2023-05-14T03:30:45;4.93;;;4.40;;
22904;SDS011;11619;50.140;8.518;2023-05-14T03:33:12;4.80;;;4.40;;
22904;SDS011;11619;50.140;8.518;2023-05-14T03:35:38;6.68;;;4.07;;
22904;SDS011;11619;50.140;8.518;2023-05-14T03:38:05;4.30;;;3.90;;
22904;SDS011;11619;50.140;8.518;2023-05-14T03:40:32;4.50;;;4.07;;
22904;SDS011;11619;50.140;8.518;2023-05-14T03:42:59;4.60;;;4.20;;
22904;SDS011;11619;50.140;8.518;2023-05-14T03:45:25;4.45;;;4.00;;
22904;SDS011;11619;50.140;8.518;2023-05-14T03:47:54;5.35;;;4.30;;
22904;SDS011;11619;50.140;8.518;2023-05-14T03:50:21;4.10;;;3.80;;
22904;SDS011;11619;50.140;8.518;2023-05-14T03:52:51;4.40;;;4.03;;
22904;SDS011;11619;50.140;8.518;2023-05-14T03:55:20;4.53;;;3.88;;
22904;SDS011;11619;50.140;8.518;2023-05-14T03:57:47;5.65;;;4.35;;
22904;SDS011;11619;50.140;8.518;2023-05-14T04:00:13;4.82;;;4.38;;
22904;SDS011;11619;50.140;8.518;2023-05-14T04:02:41;4.88;;;4.35;;
22904;SDS011;11619;50.140;8.518;2023-05-14T04:05:08;4.53;;;4.13;;
22904;SDS011;11619;50.140;8.518;2023-05-14T04:07:34;4.72;;;4.22;;
22904;SDS011;11619;50.140;8.518;2023-05-14T04:10:01;5.55;;;4.18;;
22904;SDS011;11619;50.140;8.518;2023-05-14T04:12:30;4.53;;;4.22;;
22904;SDS011;11619;50.140;8.518;2023-05-14T04:14:56;4.97;;;3.95;;
22904;SDS011;11619;50.140;8.518;2023-05-14T04:17:23;4.15;;;3.85;;
22904;SDS011;11619;50.140;8.518;2023-05-14T04:19:49;4.60;;;4.20;;
22904;SDS011;11619;50.140;8.518;2023-05-14T04:22:16;4.18;;;3.88;;
22904;SDS011;11619;50.140;8.518;2023-05-14T04:24:42;4.30;;;3.90;;
22904;SDS011;11619;50.140;8.518;2023-05-14T04:27:09;4.68;;;4.28;;
22904;SDS011;11619;50.140;8.518;2023-05-14T04:29:35;4.82;;;4.43;;
22904;SDS011;11619;50.140;8.518;2023-05-14T04:32:02;5.00;;;4.57;;
22904;SDS011;11619;50.140;8.518;2023-05-14T04:34:29;4.57;;;4.28;;
22904;SDS011;11619;50.140;8.518;2023-05-14T04:36:56;7.15;;;4.85;;
22904;SDS011;11619;50.140;8.518;2023-05-14T04:39:22;5.10;;;4.60;;
22904;SDS011;11619;50.140;8.518;2023-05-14T04:41:48;4.60;;;4.20;;
22904;SDS011;11619;50.140;8.518;2023-05-14T04:44:15;5.00;;;4.60;;
22904;SDS011;11619;50.140;8.518;2023-05-14T04:46:41;4.72;;;4.32;;
22904;SDS011;11619;50.140;8.518;2023-05-14T04:49:08;4.68;;;4.30;;
22904;SDS011;11619;50.140;8.518;2023-05-14T04:51:34;6.20;;;4.50;;
22904;SDS011;11619;50.140;8.518;2023-05-14T04:54:00;5.03;;;4.53;;
22904;SDS011;11619;50.140;8.518;2023-05-14T04:56:27;7.53;;;6.88;;
22904;SDS011;11619;50.140;8.518;2023-05-14T04:58:53;7.13;;;6.53;;
22904;SDS011;11619;50.140;8.518;2023-05-14T05:01:20;6.93;;;6.22;;
22904;SDS011;11619;50.140;8.518;2023-05-14T05:03:48;5.80;;;5.30;;
22904;SDS011;11619;50.140;8.518;2023-05-14T05:06:15;5.55;;;5.03;;
22904;SDS011;11619;50.140;8.518;2023-05-14T05:08:41;4.90;;;4.50;;
22904;SDS011;11619;50.140;8.518;2023-05-14T05:11:08;5.00;;;4.53;;
22904;SDS011;11619;50.140;8.518;2023-05-14T05:13:34;6.25;;;4.03;;
22904;SDS011;11619;50.140;8.518;2023-05-14T05:16:01;4.45;;;4.13;;
22904;SDS011;11619;50.140;8.518;2023-05-14T05:18:27;3.80;;;3.50;;
22904;SDS011;11619;50.140;8.518;2023-05-14T05:20:53;3.92;;;3.55;;
22904;SDS011;11619;50.140;8.518;2023-05-14T05:23:21;4.13;;;3.80;;
22904;SDS011;11619;50.140;8.518;2023-05-14T05:25:47;4.43;;;4.03;;
22904;SDS011;11619;50.140;8.518;2023-05-14T05:28:14;4.40;;;4.00;;
22904;SDS011;11619;50.140;8.518;2023-05-14T05:30:41;7.40;;;4.10;;
22904;SDS011;11619;50.140;8.518;2023-05-14T05:33:10;4.38;;;3.97;;
22904;SDS011;11619;50.140;8.518;2023-05-14T05:35:37;6.53;;;4.60;;
22904;SDS011;11619;50.140;8.518;2023-05-14T05:38:03;4.47;;;4.07;;
22904;SDS011;11619;50.140;8.518;2023-05-14T05:40:29;4.70;;;4.25;;
22904;SDS011;11619;50.140;8.518;2023-05-14T05:42:56;4.40;;;4.00;;
22904;SDS011;11619;50.140;8.518;2023-05-14T05:45:22;5.38;;;4.88;;
22904;SDS011;11619;50.140;8.518;2023-05-14T05:47:49;4.82;;;4.43;;
22904;SDS011;11619;50.140;8.518;2023-05-14T05:50:15;5.47;;;4.97;;
22904;SDS011;11619;50.140;8.518;2023-05-14T05:52:44;4.80;;;4.40;;
22904;SDS011;11619;50.140;8.518;2023-05-14T05:55:11;4.68;;;4.28;;
22904;SDS011;11619;50.140;8.518;2023-05-14T05:57:37;5.15;;;4.65;;
22904;SDS011;11619;50.140;8.518;2023-05-14T06:00:04;10.55;;;5.40;;
22904;SDS011;11619;50.140;8.518;2023-05-14T06:02:40;5.28;;;4.88;;
22904;SDS011;11619;50.140;8.518;2023-05-14T06:05:07;5.10;;;4.70;;
22904;SDS011;11619;50.140;8.518;2023-05-14T06:07:35;9.90;;;5.22;;
22904;SDS011;11619;50.140;8.518;2023-05-14T06:10:01;4.95;;;4.55;;
22904;SDS011;11619;50.140;8.518;2023-05-14T06:12:28;6.97;;;5.50;;
22904;SDS011;11619;50.140;8.518;2023-05-14T06:14:54;6.05;;;5.45;;
22904;SDS011;11619;50.140;8.518;2023-05-14T06:17:23;6.05;;;4.65;;
22904;SDS011;11619;50.140;8.518;2023-05-14T06:19:50;8.25;;;6.10;;
22904;SDS011;11619;50.140;8.518;2023-05-14T06:22:17;7.03;;;5.10;;
22904;SDS011;11619;50.140;8.518;2023-05-14T06:24:43;5.68;;;5.25;;
22904;SDS011;11619;50.140;8.518;2023-05-14T06:27:10;6.03;;;5.28;;
22904;SDS011;11619;50.140;8.518;2023-05-14T06:29:36;5.93;;;5.40;;
22904;SDS011;11619;50.140;8.518;2023-05-14T06:32:03;8.77;;;5.22;;
22904;SDS011;11619;50.140;8.518;2023-05-14T06:34:30;5.97;;;5.45;;
22904;SDS011;11619;50.140;8.518;2023-05-14T06:36:57;4.70;;;4.30;;
22904;SDS011;11619;50.140;8.518;2023-05-14T06:39:23;5.78;;;4.95;;
22904;SDS011;11619;50.140;8.518;2023-05-14T06:41:50;5.35;;;4.95;;
22904;SDS011;11619;50.140;8.518;2023-05-14T06:44:17;5.80;;;4.75;;
22904;SDS011;11619;50.140;8.518;2023-05-14T06:46:44;5.70;;;5.10;;
22904;SDS011;11619;50.140;8.518;2023-05-14T06:49:10;5.68;;;5.13;;
22904;SDS011;11619;50.140;8.518;2023-05-14T06:51:38;6.53;;;5.10;;
22904;SDS011;11619;50.140;8.518;2023-05-14T06:54:05;4.65;;;4.18;;
22904;SDS011;11619;50.140;8.518;2023-05-14T06:56:32;4.22;;;3.92;;
22904;SDS011;11619;50.140;8.518;2023-05-14T06:58:58;5.82;;;4.35;;
22904;SDS011;11619;50.140;8.518;2023-05-14T07:01:25;4.05;;;3.65;;
22904;SDS011;11619;50.140;8.518;2023-05-14T07:03:52;3.70;;;3.40;;
22904;SDS011;11619;50.140;8.518;2023-05-14T07:06:19;3.97;;;3.67;;
22904;SDS011;11619;50.140;8.518;2023-05-14T07:08:45;5.32;;;4.82;;
22904;SDS011;11619;50.140;8.518;2023-05-14T07:11:12;4.22;;;3.83;;
22904;SDS011;11619;50.140;8.518;2023-05-14T07:13:38;5.72;;;3.80;;
22904;SDS011;11619;50.140;8.518;2023-05-14T07:16:06;5.18;;;3.85;;
22904;SDS011;11619;50.140;8.518;2023-05-14T07:18:35;4.18;;;3.78;;
22904;SDS011;11619;50.140;8.518;2023-05-14T07:21:01;5.68;;;4.03;;
22904;SDS011;11619;50.140;8.518;2023-05-14T07:23:30;4.05;;;3.75;;
22904;SDS011;11619;50.140;8.518;2023-05-14T07:25:56;5.78;;;4.05;;
22904;SDS011;11619;50.140;8.518;2023-05-14T07:28:22;6.40;;;3.90;;
22904;SDS011;11619;50.140;8.518;2023-05-14T07:30:49;5.05;;;3.95;;
22904;SDS011;11619;50.140;8.518;2023-05-14T07:33:15;4.28;;;3.95;;
22904;SDS011;11619;50.140;8.518;2023-05-14T07:35:42;4.32;;;3.92;;
22904;SDS011;11619;50.140;8.518;2023-05-14T07:38:08;5.10;;;3.83;;
22904;SDS011;11619;50.140;8.518;2023-05-14T07:40:34;6.30;;;4.00;;
22904;SDS011;11619;50.140;8.518;2023-05-14T07:43:01;3.92;;;3.63;;
22904;SDS011;11619;50.140;8.518;2023-05-14T07:45:27;3.80;;;3.50;;
22904;SDS011;11619;50.140;8.518;2023-05-14T07:47:54;5.45;;;3.65;;
22904;SDS011;11619;50.140;8.518;2023-05-14T07:50:21;4.30;;;3.90;;
22904;SDS011;11619;50.140;8.518;2023-05-14T07:52:49;3.58;;;3.28;;
22904;SDS011;11619;50.140;8.518;2023-05-14T07:55:15;4.05;;;3.70;;
22904;SDS011;11619;50.140;8.518;2023-05-14T07:57:42;4.70;;;4.30;;
22904;SDS011;11619;50.140;8.518;2023-05-14T08:00:08;4.20;;;3.45;;
22904;SDS011;11619;50.140;8.518;2023-05-14T08:02:35;4.25;;;3.85;;
22904;SDS011;11619;50.140;8.518;2023-05-14T08:05:02;3.90;;;3.60;;
22904;SDS011;11619;50.140;8.518;2023-05-14T08:07:29;3.72;;;3.42;;
22904;SDS011;11619;50.140;8.518;2023-05-14T08:09:56;6.05;;;3.83;;
22904;SDS011;11619;50.140;8.518;2023-05-14T08:12:22;4.60;;;3.55;;
22904;SDS011;11619;50.140;8.518;2023-05-14T08:14:49;4.63;;;4.10;;
22904;SDS011;11619;50.140;8.518;2023-05-14T08:17:15;3.72;;;3.42;;
22904;SDS011;11619;50.140;8.518;2023-05-14T08:19:42;3.63;;;3.22;;
22904;SDS011;11619;50.140;8.518;2023-05-14T08:22:08;4.28;;;3.88;;
22904;SDS011;11619;50.140;8.518;2023-05-14T08:24:34;6.03;;;3.70;;
22904;SDS011;11619;50.140;8.518;2023-05-14T08:27:01;4.03;;;3.72;;
22904;SDS011;11619;50.140;8.518;2023-05-14T08:29:27;3.95;;;3.65;;
22904;SDS011;11619;50.140;8.518;2023-05-14T08:31:54;4.63;;;3.88;;
22904;SDS011;11619;50.140;8.518;2023-05-14T08:34:20;4.72;;;3.70;;
22904;SDS011;11619;50.140;8.518;2023-05-14T08:36:47;4.82;;;3.50;;
22904;SDS011;11619;50.140;8.518;2023-05-14T08:39:13;6.90;;;3.42;;
22904;SDS011;11619;50.140;8.518;2023-05-14T08:41:40;7.82;;;4.22;;
22904;SDS011;11619;50.140;8.518;2023-05-14T08:44:13;4.18;;;3.83;;
22904;SDS011;11619;50.140;8.518;2023-05-14T08:46:40;4.30;;;3.58;;
22904;SDS011;11619;50.140;8.518;2023-05-14T08:51:42;6.80;;;3.70;;
22904;SDS011;11619;50.140;8.518;2023-05-14T08:54:09;3.83;;;3.42;;
22904;SDS011;11619;50.140;8.518;2023-05-14T08:56:39;3.67;;;3.38;;
22904;SDS011;11619;50.140;8.518;2023-05-14T08:59:07;3.63;;;3.13;;
22904;SDS011;11619;50.140;8.518;2023-05-14T09:01:33;3.30;;;3.00;;
22904;SDS011;11619;50.140;8.518;2023-05-14T09:04:00;3.88;;;3.58;;
22904;SDS011;11619;50.140;8.518;2023-05-14T09:06:32;3.83;;;3.17;;
22904;SDS011;11619;50.140;8.518;2023-05-14T09:08:59;3.75;;;3.45;;
22904;SDS011;11619;50.140;8.518;2023-05-14T09:11:26;3.78;;;2.88;;
22904;SDS011;11619;50.140;8.518;2023-05-14T09:13:52;3.47;;;3.17;;
22904;SDS011;11619;50.140;8.518;2023-05-14T09:16:19;4.03;;;3.72;;
22904;SDS011;11619;50.140;8.518;2023-05-14T09:18:46;3.58;;;3.28;;
22904;SDS011;11619;50.140;8.518;2023-05-14T09:21:13;3.97;;;3.67;;
22904;SDS011;11619;50.140;8.518;2023-05-14T09:23:40;4.30;;;2.88;;
22904;SDS011;11619;50.140;8.518;2023-05-14T09:26:07;4.70;;;3.30;;
22904;SDS011;11619;50.140;8.518;2023-05-14T09:28:33;3.50;;;3.20;;
22904;SDS011;11619;50.140;8.518;2023-05-14T09:31:02;4.07;;;3.00;;
22904;SDS011;11619;50.140;8.518;2023-05-14T09:33:29;3.55;;;3.25;;
22904;SDS011;11619;50.140;8.518;2023-05-14T09:35:59;3.25;;;2.97;;
22904;SDS011;11619;50.140;8.518;2023-05-14T09:38:31;3.22;;;2.97;;
22904;SDS011;11619;50.140;8.518;2023-05-14T09:41:00;3.47;;;3.17;;
22904;SDS011;11619;50.140;8.518;2023-05-14T09:43:26;3.45;;;3.15;;
22904;SDS011;11619;50.140;8.518;2023-05-14T09:45:53;3.20;;;2.78;;
22904;SDS011;11619;50.140;8.518;2023-05-14T09:48:19;3.10;;;2.85;;
22904;SDS011;11619;50.140;8.518;2023-05-14T09:50:47;2.70;;;2.50;;
22904;SDS011;11619;50.140;8.518;2023-05-14T09:53:13;3.28;;;2.97;;
22904;SDS011;11619;50.140;8.518;2023-05-14T09:55:40;3.45;;;3.15;;
22904;SDS011;11619;50.140;8.518;2023-05-14T09:58:06;3.17;;;2.97;;
22904;SDS011;11619;50.140;8.518;2023-05-14T10:00:33;3.30;;;3.00;;
22904;SDS011;11619;50.140;8.518;2023-05-14T10:03:03;3.50;;;3.20;;
22904;SDS011;11619;50.140;8.518;2023-05-14T10:05:34;2.42;;;2.22;;
22904;SDS011;11619;50.140;8.518;2023-05-14T10:08:02;3.78;;;2.97;;
22904;SDS011;11619;50.140;8.518;2023-05-14T10:10:31;2.92;;;2.67;;
22904;SDS011;11619;50.140;8.518;2023-05-14T10:13:00;2.75;;;2.55;;
22904;SDS011;11619;50.140;8.518;2023-05-14T10:15:34;3.20;;;2.90;;
22904;SDS011;11619;50.140;8.518;2023-05-14T10:18:06;3.33;;;2.70;;
22904;SDS011;11619;50.140;8.518;2023-05-14T10:20:35;2.72;;;2.53;;
22904;SDS011;11619;50.140;8.518;2023-05-14T10:23:03;2.97;;;2.67;;
22904;SDS011;11619;50.140;8.518;2023-05-14T10:25:31;3.15;;;2.47;;
22904;SDS011;11619;50.140;8.518;2023-05-14T10:27:57;2.60;;;2.40;;
22904;SDS011;11619;50.140;8.518;2023-05-14T10:30:24;2.80;;;2.60;;
22904;SDS011;11619;50.140;8.518;2023-05-14T10:35:50;2.78;;;2.30;;
22904;SDS011;11619;50.140;8.518;2023-05-14T10:38:20;2.22;;;2.08;;
22904;SDS011;11619;50.140;8.518;2023-05-14T10:40:48;2.33;;;2.17;;
22904;SDS011;11619;50.140;8.518;2023-05-14T10:43:16;3.60;;;2.90;;
22904;SDS011;11619;50.140;8.518;2023-05-14T10:45:43;2.70;;;2.35;;
22904;SDS011;11619;50.140;8.518;2023-05-14T10:48:11;2.55;;;2.35;;
22904;SDS011;11619;50.140;8.518;2023-05-14T10:50:37;3.10;;;2.55;;
22904;SDS011;11619;50.140;8.518;2023-05-14T10:53:03;2.58;;;2.38;;
22904;SDS011;11619;50.140;8.518;2023-05-14T10:55:30;3.00;;;2.70;;
22904;SDS011;11619;50.140;8.518;2023-05-14T10:57:57;3.30;;;3.05;;
22904;SDS011;11619;50.140;8.518;2023-05-14T11:00:24;3.38;;;2.50;;
22904;SDS011;11619;50.140;8.518;2023-05-14T11:02:51;2.60;;;2.40;;
22904;SDS011;11619;50.140;8.518;2023-05-14T11:05:20;2.70;;;2.40;;
22904;SDS011;11619;50.140;8.518;2023-05-14T11:07:47;2.83;;;2.63;;
22904;SDS011;11619;50.140;8.518;2023-05-14T11:10:15;3.28;;;2.97;;
22904;SDS011;11619;50.140;8.518;2023-05-14T11:12:47;2.72;;;2.53;;
22904;SDS011;11619;50.140;8.518;2023-05-14T11:15:18;3.00;;;2.80;;
22904;SDS011;11619;50.140;8.518;2023-05-14T11:17:46;2.63;;;2.42;;
22904;SDS011;11619;50.140;8.518;2023-05-14T11:20:14;3.28;;;2.85;;
22904;SDS011;11619;50.140;8.518;2023-05-14T11:22:41;2.88;;;2.67;;
22904;SDS011;11619;50.140;8.518;2023-05-14T11:25:10;2.85;;;2.60;;
22904;SDS011;11619;50.140;8.518;2023-05-14T11:27:40;2.65;;;2.45;;
22904;SDS011;11619;50.140;8.518;2023-05-14T11:30:12;2.80;;;2.60;;
22904;SDS011;11619;50.140;8.518;2023-05-14T11:32:39;5.53;;;2.83;;
22904;SDS011;11619;50.140;8.518;2023-05-14T11:35:06;3.17;;;2.40;;
22904;SDS011;11619;50.140;8.518;2023-05-14T11:37:33;3.67;;;2.83;;
22904;SDS011;11619;50.140;8.518;2023-05-14T11:39:59;2.45;;;2.25;;
22904;SDS011;11619;50.140;8.518;2023-05-14T11:42:26;2.50;;;2.28;;
22904;SDS011;11619;50.140;8.518;2023-05-14T11:44:53;2.53;;;2.30;;
22904;SDS011;11619;50.140;8.518;2023-05-14T11:47:20;2.83;;;2.58;;
22904;SDS011;11619;50.140;8.518;2023-05-14T11:49:47;2.83;;;2.55;;
22904;SDS011;11619;50.140;8.518;2023-05-14T11:52:14;2.60;;;2.40;;
22904;SDS011;11619;50.140;8.518;2023-05-14T11:54:42;2.70;;;2.50;;
22904;SDS011;11619;50.140;8.518;2023-05-14T11:57:14;2.50;;;2.30;;
22904;SDS011;11619;50.140;8.518;2023-05-14T11:59:41;2.28;;;2.17;;
22904;SDS011;11619;50.140;8.518;2023-05-14T12:02:11;2.38;;;2.17;;
22904;SDS011;11619;50.140;8.518;2023-05-14T12:04:39;2.10;;;1.90;;
22904;SDS011;11619;50.140;8.518;2023-05-14T12:07:11;2.42;;;2.22;;
22904;SDS011;11619;50.140;8.518;2023-05-14T12:09:40;2.70;;;2.50;;
22904;SDS011;11619;50.140;8.518;2023-05-14T12:12:11;2.75;;;2.08;;
22904;SDS011;11619;50.140;8.518;2023-05-14T12:14:40;2.33;;;2.13;;
22904;SDS011;11619;50.140;8.518;2023-05-14T12:17:13;2.50;;;2.10;;
22904;SDS011;11619;50.140;8.518;2023-05-14T12:19:41;1.83;;;1.73;;
22904;SDS011;11619;50.140;8.518;2023-05-14T12:22:13;2.20;;;2.00;;
22904;SDS011;11619;50.140;8.518;2023-05-14T12:24:40;2.58;;;2.05;;
22904;SDS011;11619;50.140;8.518;2023-05-14T12:27:08;1.63;;;1.52;;
22904;SDS011;11619;50.140;8.518;2023-05-14T12:29:36;2.58;;;2.17;;
22904;SDS011;11619;50.140;8.518;2023-05-14T12:32:07;2.25;;;2.05;;
22904;SDS011;11619;50.140;8.518;2023-05-14T12:34:34;1.90;;;1.67;;
22904;SDS011;11619;50.140;8.518;2023-05-14T12:37:03;2.42;;;2.22;;
22904;SDS011;11619;50.140;8.518;2023-05-14T12:39:31;2.92;;;2.00;;
22904;SDS011;11619;50.140;8.518;2023-05-14T12:41:58;1.90;;;1.80;;
22904;SDS011;11619;50.140;8.518;2023-05-14T12:44:25;1.88;;;1.77;;
22904;SDS011;11619;50.140;8.518;2023-05-14T12:46:52;1.83;;;1.60;;
22904;SDS011;11619;50.140;8.518;2023-05-14T12:49:18;2.10;;;1.58;;
22904;SDS011;11619;50.140;8.518;2023-05-14T12:51:45;2.05;;;1.85;;
22904;SDS011;11619;50.140;8.518;2023-05-14T12:54:12;3.10;;;1.95;;
22904;SDS011;11619;50.140;8.518;2023-05-14T12:56:38;1.90;;;1.80;;
22904;SDS011;11619;50.140;8.518;2023-05-14T12:59:05;2.08;;;1.95;;
22904;SDS011;11619;50.140;8.518;2023-05-14T13:01:31;1.98;;;1.88;;
22904;SDS011;11619;50.140;8.518;2023-05-14T13:03:58;2.33;;;1.98;;
22904;SDS011;11619;50.140;8.518;2023-05-14T13:06:25;2.25;;;1.73;;
22904;SDS011;11619;50.140;8.518;2023-05-14T13:08:51;2.13;;;1.90;;
22904;SDS011;11619;50.140;8.518;2023-05-14T13:11:17;2.75;;;1.67;;
22904;SDS011;11619;50.140;8.518;2023-05-14T13:13:44;1.90;;;1.80;;
22904;SDS011;11619;50.140;8.518;2023-05-14T13:16:10;4.97;;;1.92;;
22904;SDS011;11619;50.140;8.518;2023-05-14T13:18:41;1.75;;;1.65;;
22904;SDS011;11619;50.140;8.518;2023-05-14T13:21:08;2.67;;;1.90;;
22904;SDS011;11619;50.140;8.518;2023-05-14T13:23:34;2.15;;;1.58;;
22904;SDS011;11619;50.140;8.518;2023-05-14T13:26:01;1.85;;;1.75;;
22904;SDS011;11619;50.140;8.518;2023-05-14T13:28:27;1.83;;;1.65;;
22904;SDS011;11619;50.140;8.518;2023-05-14T13:31:06;1.90;;;1.70;;
22904;SDS011;11619;50.140;8.518;2023-05-14T13:33:35;2.28;;;1.80;;
22904;SDS011;11619;50.140;8.518;2023-05-14T13:36:02;2.33;;;1.77;;
22904;SDS011;11619;50.140;8.518;2023-05-14T13:38:29;1.92;;;1.75;;
22904;SDS011;11619;50.140;8.518;2023-05-14T13:40:56;2.00;;;1.90;;
22904;SDS011;11619;50.140;8.518;2023-05-14T13:43:27;1.75;;;1.65;;
22904;SDS011;11619;50.140;8.518;2023-05-14T13:45:57;1.58;;;1.48;;
22904;SDS011;11619;50.140;8.518;2023-05-14T13:48:23;1.55;;;1.45;;
22904;SDS011;11619;50.140;8.518;2023-05-14T13:50:50;1.73;;;1.60;;
22904;SDS011;11619;50.140;8.518;2023-05-14T13:53:20;2.35;;;1.40;;
22904;SDS011;11619;50.140;8.518;2023-05-14T13:55:48;3.13;;;1.83;;
22904;SDS011;11619;50.140;8.518;2023-05-14T13:58:14;1.90;;;1.75;;
22904;SDS011;11619;50.140;8.518;2023-05-14T14:00:41;2.10;;;1.75;;
22904;SDS011;11619;50.140;8.518;2023-05-14T14:03:08;1.80;;;1.65;;
22904;SDS011;11619;50.140;8.518;2023-05-14T14:05:34;2.53;;;1.67;;
22904;SDS011;11619;50.140;8.518;2023-05-14T14:08:01;2.78;;;1.77;;
22904;SDS011;11619;50.140;8.518;2023-05-14T14:10:47;1.90;;;1.67;;
22904;SDS011;11619;50.140;8.518;2023-05-14T14:13:14;1.80;;;1.70;;
22904;SDS011;11619;50.140;8.518;2023-05-14T14:15:40;2.88;;;1.85;;
22904;SDS011;11619;50.140;8.518;2023-05-14T14:18:07;2.15;;;2.00;;
22904;SDS011;11619;50.140;8.518;2023-05-14T14:20:34;1.83;;;1.73;;
22904;SDS011;11619;50.140;8.518;2023-05-14T14:23:01;4.32;;;1.80;;
22904;SDS011;11619;50.140;8.518;2023-05-14T14:25:27;2.00;;;1.90;;
22904;SDS011;11619;50.140;8.518;2023-05-14T14:27:54;1.60;;;1.50;;
22904;SDS011;11619;50.140;8.518;2023-05-14T14:30:20;1.90;;;1.75;;
22904;SDS011;11619;50.140;8.518;2023-05-14T14:32:47;2.67;;;2.15;;
22904;SDS011;11619;50.140;8.518;2023-05-14T14:35:17;2.20;;;2.00;;
22904;SDS011;11619;50.140;8.518;2023-05-14T14:37:44;3.38;;;2.30;;
22904;SDS011;11619;50.140;8.518;2023-05-14T14:40:14;2.85;;;1.73;;
22904;SDS011;11619;50.140;8.518;2023-05-14T14:42:41;2.25;;;1.83;;
22904;SDS011;11619;50.140;8.518;2023-05-14T14:45:08;1.60;;;1.50;;
22904;SDS011;11619;50.140;8.518;2023-05-14T14:47:35;2.00;;;1.80;;
22904;SDS011;11619;50.140;8.518;2023-05-14T14:50:02;1.60;;;1.50;;
22904;SDS011;11619;50.140;8.518;2023-05-14T14:52:28;1.58;;;1.48;;
22904;SDS011;11619;50.140;8.518;2023-05-14T14:54:55;1.80;;;1.65;;
22904;SDS011;11619;50.140;8.518;2023-05-14T14:57:22;1.95;;;1.27;;
22904;SDS011;11619;50.140;8.518;2023-05-14T14:59:48;1.73;;;1.35;;
22904;SDS011;11619;50.140;8.518;2023-05-14T15:02:14;1.45;;;1.35;;